createdAt,value
2019-01-27T00:00:41.952Z,970.22
2019-01-27T00:01:45.249Z,970.18
2019-01-27T00:02:41.329Z,970.14
2019-01-27T00:03:42.404Z,970.15
2019-01-27T00:04:45.411Z,970.09
2019-01-27T00:05:48.438Z,970.04
2019-01-27T00:06:45.449Z,970.06
2019-01-27T00:07:43.900Z,969.98
2019-01-27T00:08:43.899Z,969.93
2019-01-27T00:10:04.932Z,969.92
2019-01-27T00:10:42.539Z,969.83
2019-01-27T00:11:42.628Z,969.82
2019-01-27T00:12:42.836Z,969.83
2019-01-27T00:13:44.899Z,969.82
2019-01-27T00:14:46.859Z,969.83
2019-01-27T00:15:44.476Z,969.87
2019-01-27T00:16:45.660Z,969.87
2019-01-27T00:17:43.693Z,969.85
2019-01-27T00:18:43.903Z,969.85
2019-01-27T00:19:45.895Z,969.82
2019-01-27T00:20:46.915Z,969.79
2019-01-27T00:21:44.465Z,969.71
2019-01-27T00:22:46.402Z,969.69
2019-01-27T00:23:44.717Z,969.65
2019-01-27T00:24:47.769Z,969.64
2019-01-27T00:25:45.084Z,969.58
2019-01-27T00:26:45.174Z,969.62
2019-01-27T00:27:46.905Z,969.58
2019-01-27T00:28:52.435Z,969.59
2019-01-27T00:29:48.415Z,969.58
2019-01-27T00:30:45.985Z,969.59
2019-01-27T00:32:08.896Z,969.59
2019-01-27T00:32:46.373Z,969.49
2019-01-27T00:33:49.375Z,969.46
2019-01-27T00:34:48.415Z,969.44
2019-01-27T00:35:46.883Z,969.39
2019-01-27T00:36:47.087Z,969.38
2019-01-27T00:37:51.912Z,969.28
2019-01-27T00:38:51.396Z,969.30
2019-01-27T00:39:49.406Z,969.22
2019-01-27T00:40:47.888Z,969.28
2019-01-27T00:41:49.949Z,969.21
2019-01-27T00:42:49.893Z,969.28
2019-01-27T00:44:12.922Z,969.25
2019-01-27T00:44:49.919Z,969.27
2019-01-27T00:45:50.430Z,969.19
2019-01-27T00:46:50.397Z,969.16
2019-01-27T00:47:50.395Z,969.19
2019-01-27T00:48:48.984Z,969.17
2019-01-27T00:49:49.221Z,969.13
2019-01-27T00:50:52.899Z,969.13
2019-01-27T00:51:53.395Z,969.07
2019-01-27T00:52:51.151Z,969.08
2019-01-27T00:55:26.306Z,968.98
2019-01-27T00:56:25.968Z,969.02
2019-01-27T00:57:22.765Z,969.01
2019-01-27T00:58:21.965Z,968.96
2019-01-27T00:59:22.202Z,968.97
2019-01-27T01:00:22.366Z,968.90
2019-01-27T01:01:22.590Z,968.89
2019-01-27T01:02:43.850Z,968.87
2019-01-27T01:03:38.858Z,968.77
2019-01-27T01:04:25.905Z,968.77
2019-01-27T01:05:24.297Z,968.86
2019-01-27T01:06:26.877Z,968.82
2019-01-27T01:07:25.360Z,968.74
2019-01-27T01:08:23.687Z,968.74
2019-01-27T01:09:23.905Z,968.71
2019-01-27T01:10:46.859Z,968.73
2019-01-27T01:11:24.289Z,968.66
2019-01-27T01:12:25.509Z,968.65
2019-01-27T01:13:48.370Z,968.68
2019-01-27T01:14:26.848Z,968.61
2019-01-27T01:15:26.865Z,968.61
2019-01-27T01:16:25.320Z,968.55
2019-01-27T01:17:25.528Z,968.44
2019-01-27T01:18:27.353Z,968.45
2019-01-27T01:19:27.849Z,968.35
2019-01-27T01:20:33.852Z,968.34
2019-01-27T01:21:26.225Z,968.34
2019-01-27T01:22:34.748Z,968.35
2019-01-27T01:23:26.592Z,968.31
2019-01-27T01:24:26.734Z,968.34
2019-01-27T01:25:30.860Z,968.37
2019-01-27T01:26:27.261Z,968.38
2019-01-27T01:27:34.876Z,968.38
2019-01-27T01:28:30.424Z,968.38
2019-01-27T01:29:29.361Z,968.37
2019-01-27T01:30:27.820Z,968.40
2019-01-27T01:31:29.022Z,968.38
2019-01-27T01:32:28.266Z,968.36
2019-01-27T01:33:29.862Z,968.26
2019-01-27T01:34:36.357Z,968.30
2019-01-27T01:35:28.711Z,968.26
2019-01-27T01:36:30.955Z,968.23
2019-01-27T01:37:29.151Z,968.23
2019-01-27T01:38:29.357Z,968.13
2019-01-27T01:39:30.555Z,968.15
2019-01-27T01:40:31.359Z,968.11
2019-01-27T01:41:29.932Z,968.07
2019-01-27T01:42:34.578Z,968.10
2019-01-27T01:43:30.271Z,968.05
2019-01-27T01:44:31.476Z,968.02
2019-01-27T01:45:32.346Z,967.96
2019-01-27T01:46:34.366Z,967.98
2019-01-27T01:47:30.947Z,967.98
2019-01-27T01:48:32.092Z,967.97
2019-01-27T01:49:32.853Z,967.87
2019-01-27T01:50:34.851Z,967.94
2019-01-27T01:51:35.401Z,967.89
2019-01-27T01:52:47.360Z,967.83
2019-01-27T01:53:32.844Z,967.79
2019-01-27T01:54:33.891Z,967.83
2019-01-27T01:55:33.888Z,967.81
2019-01-27T01:56:34.867Z,967.74
2019-01-27T01:57:48.375Z,967.66
2019-01-27T01:58:32.707Z,967.63
2019-01-27T01:59:32.909Z,967.64
2019-01-27T02:00:34.879Z,967.62
2019-01-27T02:01:34.873Z,967.56
2019-01-27T02:02:36.304Z,967.59
2019-01-27T02:03:40.364Z,967.63
2019-01-27T02:04:54.680Z,967.61
2019-01-27T02:05:35.896Z,967.54
2019-01-27T02:06:46.122Z,967.53
2019-01-27T02:07:40.868Z,967.55
2019-01-27T02:08:42.351Z,967.54
2019-01-27T02:09:42.351Z,967.54
2019-01-27T02:10:36.354Z,967.50
2019-01-27T02:11:38.572Z,967.47
2019-01-27T02:12:41.855Z,967.42
2019-01-27T02:13:37.878Z,967.41
2019-01-27T02:14:35.341Z,967.38
2019-01-27T02:15:36.574Z,967.34
2019-01-27T02:16:37.066Z,967.33
2019-01-27T02:17:37.850Z,967.29
2019-01-27T02:18:37.876Z,967.31
2019-01-27T02:19:37.853Z,967.28
2019-01-27T02:20:38.358Z,967.25
2019-01-27T02:21:44.310Z,967.23
2019-01-27T02:22:36.772Z,967.19
2019-01-27T02:23:38.849Z,967.18
2019-01-27T02:24:38.851Z,967.16
2019-01-27T02:25:38.849Z,967.19
2019-01-27T02:26:41.408Z,967.13
2019-01-27T02:27:37.738Z,967.14
2019-01-27T02:29:02.852Z,967.10
2019-01-27T02:29:39.873Z,967.08
2019-01-27T02:30:39.350Z,967.02
2019-01-27T02:31:39.687Z,966.97
2019-01-27T02:32:42.360Z,966.93
2019-01-27T02:33:40.852Z,966.93
2019-01-27T02:35:03.865Z,966.87
2019-01-27T02:35:39.842Z,966.82
2019-01-27T02:36:40.849Z,966.87
2019-01-27T02:37:40.469Z,966.87
2019-01-27T02:39:02.362Z,966.84
2019-01-27T02:39:42.417Z,966.85
2019-01-27T02:40:39.877Z,966.80
2019-01-27T02:41:43.852Z,966.81
2019-01-27T02:42:40.348Z,966.74
2019-01-27T02:43:44.626Z,966.78
2019-01-27T02:44:44.353Z,966.69
2019-01-27T02:45:40.866Z,966.71
2019-01-27T02:46:42.103Z,966.67
2019-01-27T02:47:43.815Z,966.61
2019-01-27T02:48:41.403Z,966.62
2019-01-27T02:49:43.368Z,966.67
2019-01-27T02:50:43.353Z,966.65
2019-01-27T02:51:43.001Z,966.61
2019-01-27T02:52:42.093Z,966.60
2019-01-27T02:53:43.850Z,966.61
2019-01-27T02:54:46.405Z,966.64
2019-01-27T02:55:44.366Z,966.53
2019-01-27T02:56:46.357Z,966.54
2019-01-27T02:57:46.862Z,966.54
2019-01-27T02:58:44.152Z,966.52
2019-01-27T02:59:44.858Z,966.53
2019-01-27T03:00:44.859Z,966.53
2019-01-27T03:01:47.352Z,966.57
2019-01-27T03:02:45.353Z,966.50
2019-01-27T03:03:47.360Z,966.46
2019-01-27T03:04:43.819Z,966.44
2019-01-27T03:06:06.826Z,966.39
2019-01-27T03:06:45.857Z,966.34
2019-01-27T03:08:07.355Z,966.32
2019-01-27T03:08:46.379Z,966.31
2019-01-27T03:09:47.306Z,966.30
2019-01-27T03:10:46.908Z,966.19
2019-01-27T03:11:46.926Z,966.23
2019-01-27T03:12:45.277Z,966.23
2019-01-27T03:13:47.358Z,966.18
2019-01-27T03:14:52.372Z,966.21
2019-01-27T03:15:49.377Z,966.19
2019-01-27T03:16:47.857Z,966.24
2019-01-27T03:17:49.867Z,966.19
2019-01-27T03:18:46.307Z,966.15
2019-01-27T03:19:47.560Z,966.13
2019-01-27T03:20:46.650Z,966.14
2019-01-27T03:21:48.351Z,966.13
2019-01-27T03:22:46.933Z,966.06
2019-01-27T03:23:50.855Z,966.05
2019-01-27T03:24:47.317Z,966.03
2019-01-27T03:26:09.550Z,965.98
2019-01-27T03:26:47.612Z,965.92
2019-01-27T03:27:49.369Z,965.85
2019-01-27T03:28:49.865Z,965.80
2019-01-27T03:29:49.874Z,965.74
2019-01-27T03:30:49.889Z,965.76
2019-01-27T03:31:50.514Z,965.79
2019-01-27T03:32:50.359Z,965.85
2019-01-27T03:33:48.797Z,965.84
2019-01-27T03:34:50.863Z,965.78
2019-01-27T03:35:49.193Z,965.76
2019-01-27T03:36:53.409Z,965.76
2019-01-27T03:37:52.310Z,965.69
2019-01-27T03:38:51.354Z,965.74
2019-01-27T03:39:51.875Z,965.68
2019-01-27T03:40:56.860Z,965.64
2019-01-27T03:41:53.852Z,965.60
2019-01-27T03:42:52.353Z,965.62
2019-01-27T03:43:52.730Z,965.63
2019-01-27T03:44:52.278Z,965.59
2019-01-27T03:45:52.855Z,965.52
2019-01-27T03:46:52.837Z,965.55
2019-01-27T03:47:51.169Z,965.56
2019-01-27T03:48:59.366Z,965.50
2019-01-27T03:49:55.355Z,965.47
2019-01-27T03:50:54.846Z,965.42
2019-01-27T03:51:51.806Z,965.43
2019-01-27T03:53:00.828Z,965.43
2019-01-27T03:53:52.807Z,965.38
2019-01-27T03:54:52.427Z,965.36
2019-01-27T03:55:54.358Z,965.34
2019-01-27T03:56:54.352Z,965.34
2019-01-27T03:57:54.861Z,965.33
2019-01-27T03:58:53.063Z,965.32
2019-01-27T03:59:54.301Z,965.23
2019-01-27T04:00:53.426Z,965.23
2019-01-27T04:01:54.646Z,965.29
2019-01-27T04:02:56.273Z,965.21
2019-01-27T04:05:29.608Z,965.13
2019-01-27T04:06:26.045Z,965.13
2019-01-27T04:07:26.244Z,965.11
2019-01-27T04:08:26.440Z,965.07
2019-01-27T04:09:30.614Z,965.04
2019-01-27T04:10:47.818Z,965.06
2019-01-27T04:11:28.610Z,965.06
2019-01-27T04:12:29.111Z,965.00
2019-01-27T04:13:28.329Z,964.98
2019-01-27T04:14:29.115Z,964.97
2019-01-27T04:15:29.125Z,964.96
2019-01-27T04:16:27.715Z,964.95
2019-01-27T04:17:27.927Z,964.95
2019-01-27T04:18:30.116Z,964.95
2019-01-27T04:19:31.095Z,964.93
2019-01-27T04:20:44.106Z,964.89
2019-01-27T04:21:35.613Z,964.94
2019-01-27T04:22:28.804Z,964.90
2019-01-27T04:23:29.077Z,964.91
2019-01-27T04:24:31.131Z,964.90
2019-01-27T04:25:31.109Z,964.89
2019-01-27T04:26:29.441Z,964.87
2019-01-27T04:27:31.651Z,964.81
2019-01-27T04:28:31.615Z,964.81
2019-01-27T04:29:31.656Z,964.80
2019-01-27T04:30:46.145Z,964.78
2019-01-27T04:31:30.516Z,964.80
2019-01-27T04:32:32.149Z,964.74
2019-01-27T04:33:33.804Z,964.75
2019-01-27T04:34:32.610Z,964.72
2019-01-27T04:35:35.122Z,964.68
2019-01-27T04:36:42.217Z,964.70
2019-01-27T04:37:32.684Z,964.63
2019-01-27T04:38:31.888Z,964.58
2019-01-27T04:39:33.094Z,964.62
2019-01-27T04:40:32.304Z,964.57
2019-01-27T04:41:34.112Z,964.57
2019-01-27T04:42:34.609Z,964.57
2019-01-27T04:43:35.534Z,964.52
2019-01-27T04:44:34.656Z,964.52
2019-01-27T04:45:46.109Z,964.51
2019-01-27T04:46:37.110Z,964.48
2019-01-27T04:47:54.649Z,964.45
2019-01-27T04:48:35.609Z,964.47
2019-01-27T04:49:35.878Z,964.41
2019-01-27T04:50:34.134Z,964.44
2019-01-27T04:51:34.331Z,964.39
2019-01-27T04:52:38.117Z,964.42
2019-01-27T04:53:34.681Z,964.37
2019-01-27T04:54:34.890Z,964.39
2019-01-27T04:55:35.085Z,964.39
2019-01-27T04:56:37.114Z,964.38
2019-01-27T04:57:37.114Z,964.37
2019-01-27T04:58:51.110Z,964.34
2019-01-27T04:59:35.700Z,964.32
2019-01-27T05:00:39.612Z,964.30
2019-01-27T05:01:38.216Z,964.27
2019-01-27T05:02:36.097Z,964.28
2019-01-27T05:03:36.185Z,964.27
2019-01-27T05:04:39.590Z,964.22
2019-01-27T05:05:38.139Z,964.19
2019-01-27T05:06:36.725Z,964.21
2019-01-27T05:07:36.937Z,964.13
2019-01-27T05:08:37.136Z,964.16
2019-01-27T05:09:40.063Z,964.14
2019-01-27T05:10:37.527Z,964.12
2019-01-27T05:11:39.648Z,964.10
2019-01-27T05:12:37.848Z,964.13
2019-01-27T05:13:39.625Z,964.10
2019-01-27T05:14:38.227Z,964.10
2019-01-27T05:16:07.110Z,964.08
2019-01-27T05:16:40.111Z,964.15
2019-01-27T05:17:38.690Z,964.06
2019-01-27T05:18:40.608Z,964.09
2019-01-27T05:19:45.587Z,964.06
2019-01-27T05:20:39.177Z,964.07
2019-01-27T05:21:43.167Z,964.05
2019-01-27T05:22:41.147Z,964.08
2019-01-27T05:23:44.572Z,964.07
2019-01-27T05:24:55.612Z,964.10
2019-01-27T05:25:41.631Z,964.01
2019-01-27T05:26:44.150Z,964.06
2019-01-27T05:27:44.131Z,964.03
2019-01-27T05:28:40.601Z,964.00
2019-01-27T05:29:40.825Z,964.04
2019-01-27T05:30:42.613Z,964.05
2019-01-27T05:31:41.198Z,963.96
2019-01-27T05:32:41.398Z,963.98
2019-01-27T05:33:45.110Z,963.93
2019-01-27T05:34:43.612Z,963.97
2019-01-27T05:35:47.956Z,963.93
2019-01-27T05:36:44.113Z,963.96
2019-01-27T05:37:44.154Z,963.95
2019-01-27T05:38:42.537Z,963.89
2019-01-27T05:39:42.629Z,963.86
2019-01-27T05:40:46.614Z,963.86
2019-01-27T05:41:43.061Z,963.86
2019-01-27T05:42:45.246Z,963.88
2019-01-27T05:43:43.463Z,963.81
2019-01-27T05:44:45.611Z,963.79
2019-01-27T05:45:43.805Z,963.81
2019-01-27T05:46:45.050Z,963.80
2019-01-27T05:47:44.159Z,963.79
2019-01-27T05:48:44.399Z,963.77
2019-01-27T05:49:48.132Z,963.75
2019-01-27T05:50:52.615Z,963.76
2019-01-27T05:51:44.927Z,963.70
2019-01-27T05:52:47.114Z,963.73
2019-01-27T05:53:46.329Z,963.71
2019-01-27T05:54:53.113Z,963.69
2019-01-27T05:55:47.112Z,963.74
2019-01-27T05:56:47.611Z,963.65
2019-01-27T05:57:45.927Z,963.65
2019-01-27T05:58:46.133Z,963.66
2019-01-27T05:59:47.370Z,963.66
2019-01-27T06:00:49.071Z,963.61
2019-01-27T06:02:07.659Z,963.62
2019-01-27T06:02:48.616Z,963.61
2019-01-27T06:03:48.622Z,963.58
2019-01-27T06:05:10.072Z,963.56
2019-01-27T06:05:47.389Z,963.54
2019-01-27T06:06:49.110Z,963.64
2019-01-27T06:07:47.814Z,963.63
2019-01-27T06:08:50.571Z,963.56
2019-01-27T06:09:48.206Z,963.51
2019-01-27T06:10:50.111Z,963.53
2019-01-27T06:11:50.137Z,963.52
2019-01-27T06:13:00.374Z,963.54
2019-01-27T06:13:49.817Z,963.55
2019-01-27T06:14:50.612Z,963.55
2019-01-27T06:15:51.107Z,963.55
2019-01-27T06:16:50.324Z,963.52
2019-01-27T06:17:49.514Z,963.49
2019-01-27T06:18:49.711Z,963.48
2019-01-27T06:19:51.614Z,963.50
2019-01-27T06:20:53.648Z,963.43
2019-01-27T06:21:51.236Z,963.40
2019-01-27T06:22:50.450Z,963.38
2019-01-27T06:23:50.691Z,963.31
2019-01-27T06:24:50.823Z,963.25
2019-01-27T06:25:50.920Z,963.24
2019-01-27T06:26:58.161Z,963.23
2019-01-27T06:27:53.119Z,963.16
2019-01-27T06:28:53.113Z,963.24
2019-01-27T06:29:51.577Z,963.21
2019-01-27T06:30:53.616Z,963.24
2019-01-27T06:31:53.610Z,963.19
2019-01-27T06:32:52.064Z,963.17
2019-01-27T06:33:54.110Z,963.15
2019-01-27T06:34:52.434Z,963.15
2019-01-27T06:35:54.612Z,963.17
2019-01-27T06:36:53.855Z,963.10
2019-01-27T06:37:52.945Z,963.13
2019-01-27T07:06:32.386Z,962.73
2019-01-27T07:07:32.383Z,962.72
2019-01-27T07:08:29.415Z,962.68
2019-01-27T07:09:45.344Z,962.70
2019-01-27T07:10:30.339Z,962.71
2019-01-27T07:11:29.909Z,962.76
2019-01-27T07:12:29.996Z,962.73
2019-01-27T07:13:32.006Z,962.68
2019-01-27T07:14:29.485Z,962.70
2019-01-27T07:15:32.385Z,962.65
2019-01-27T07:16:28.839Z,962.72
2019-01-27T07:17:30.883Z,962.66
2019-01-27T07:18:30.206Z,962.64
2019-01-27T07:19:46.884Z,962.65
2019-01-27T07:20:29.661Z,962.63
2019-01-27T07:21:33.384Z,962.61
2019-01-27T07:22:31.093Z,962.66
2019-01-27T07:23:37.886Z,962.60
2019-01-27T07:24:31.876Z,962.63
2019-01-27T07:25:30.607Z,962.59
2019-01-27T07:26:34.391Z,962.52
2019-01-27T07:27:35.834Z,962.48
2019-01-27T07:28:31.843Z,962.46
2019-01-27T07:29:34.932Z,962.45
2019-01-27T07:30:33.407Z,962.50
2019-01-27T07:31:32.086Z,962.42
2019-01-27T07:32:33.384Z,962.34
2019-01-27T07:33:33.884Z,962.35
2019-01-27T07:34:33.894Z,962.41
2019-01-27T07:35:32.214Z,962.32
2019-01-27T07:36:34.394Z,962.34
2019-01-27T07:37:32.631Z,962.33
2019-01-27T07:38:40.207Z,962.31
2019-01-27T07:39:32.974Z,962.31
2019-01-27T07:40:36.887Z,962.31
2019-01-27T07:41:55.880Z,962.33
2019-01-27T07:42:33.563Z,962.35
2019-01-27T07:43:56.381Z,962.28
2019-01-27T07:44:35.885Z,962.30
2019-01-27T07:45:35.885Z,962.27
2019-01-27T07:46:35.932Z,962.28
2019-01-27T07:47:39.973Z,962.40
2019-01-27T07:48:56.535Z,962.34
2019-01-27T07:49:38.379Z,962.31
2019-01-27T07:50:36.885Z,962.35
2019-01-27T07:51:36.880Z,962.29
2019-01-27T07:52:47.899Z,962.32
2019-01-27T07:53:36.922Z,962.33
2019-01-27T07:54:42.420Z,962.29
2019-01-27T07:55:35.624Z,962.29
2019-01-27T07:56:37.435Z,962.25
2019-01-27T07:57:37.902Z,962.20
2019-01-27T07:58:58.891Z,962.13
2019-01-27T07:59:42.426Z,962.15
2019-01-27T08:00:37.371Z,962.17
2019-01-27T08:01:37.848Z,962.13
2019-01-27T08:02:40.888Z,962.15
2019-01-27T08:03:38.887Z,962.12
2019-01-27T08:04:39.383Z,962.12
2019-01-27T08:05:37.584Z,962.09
2019-01-27T08:06:44.435Z,962.09
2019-01-27T08:07:37.890Z,962.09
2019-01-27T08:08:39.913Z,962.10
2019-01-27T08:09:45.893Z,962.06
2019-01-27T08:12:15.579Z,962.13
2019-01-27T08:13:22.151Z,962.08
2019-01-27T08:14:14.535Z,962.08
2019-01-27T08:24:14.358Z,962.05
2019-01-27T08:24:58.039Z,962.00
2019-01-27T08:25:54.699Z,962.05
2019-01-27T08:27:19.047Z,962.05
2019-01-27T08:27:51.941Z,962.06
2019-01-27T08:29:07.019Z,962.06
2019-01-27T08:34:34.398Z,962.01
2019-01-27T08:35:37.449Z,962.00
2019-01-27T08:36:31.943Z,961.97
2019-01-27T08:37:34.905Z,961.95
2019-01-27T08:38:33.965Z,961.99
2019-01-27T08:39:37.473Z,961.97
2019-01-27T08:40:32.411Z,961.91
2019-01-27T08:41:53.471Z,961.98
2019-01-27T08:42:34.967Z,961.99
2019-01-27T08:43:38.906Z,961.99
2019-01-27T08:44:32.925Z,961.97
2019-01-27T08:45:33.433Z,961.95
2019-01-27T08:46:32.119Z,961.90
2019-01-27T08:47:34.916Z,961.97
2019-01-27T08:48:34.915Z,961.96
2019-01-27T08:49:33.911Z,961.99
2019-01-27T08:50:58.523Z,962.02
2019-01-27T08:51:33.605Z,961.95
2019-01-27T08:52:34.386Z,962.01
2019-01-27T08:53:41.366Z,961.94
2019-01-27T08:54:36.142Z,962.01
2019-01-27T08:55:57.955Z,961.95
2019-01-27T08:56:34.920Z,961.92
2019-01-27T08:57:35.384Z,961.92
2019-01-27T09:00:31.932Z,961.89
2019-01-27T09:01:08.489Z,962.01
2019-01-27T09:02:08.101Z,961.88
2019-01-27T09:03:14.046Z,961.83
2019-01-27T09:04:09.017Z,961.87
2019-01-27T09:05:10.529Z,961.79
2019-01-27T09:06:09.267Z,961.77
2019-01-27T09:07:13.493Z,961.70
2019-01-27T09:17:45.561Z,961.66
2019-01-27T09:18:23.081Z,961.66
2019-01-27T09:20:56.768Z,961.62
2019-01-27T09:22:01.439Z,961.64
2019-01-27T09:22:54.915Z,961.60
2019-01-27T09:24:08.289Z,961.56
2019-01-27T09:25:04.578Z,961.57
2019-01-27T09:25:56.265Z,961.56
2019-01-27T09:26:56.729Z,961.47
2019-01-27T09:27:54.836Z,961.58
2019-01-27T09:28:54.767Z,961.56
2019-01-27T09:29:55.315Z,961.47
2019-01-27T09:30:55.625Z,961.49
2019-01-27T09:33:29.033Z,961.50
2019-01-27T09:34:49.284Z,961.52
2019-01-27T09:35:28.746Z,961.49
2019-01-27T09:36:28.262Z,961.49
2019-01-27T09:37:27.289Z,961.41
2019-01-27T09:38:28.293Z,961.41
2019-01-27T09:39:28.251Z,961.45
2019-01-27T09:40:27.906Z,961.40
2019-01-27T09:41:28.792Z,961.46
2019-01-27T09:42:30.848Z,961.45
2019-01-27T09:44:05.259Z,961.43
2019-01-27T09:44:56.371Z,961.41
2019-01-27T09:45:29.514Z,961.50
2019-01-27T09:46:29.248Z,961.42
2019-01-27T09:47:30.803Z,961.42
2019-01-27T09:48:53.872Z,961.33
2019-01-27T09:49:29.263Z,961.41
2019-01-27T09:50:28.434Z,961.37
2019-01-27T09:51:36.009Z,961.27
2019-01-27T09:52:50.350Z,961.38
2019-01-27T09:53:30.856Z,961.37
2019-01-27T09:54:29.988Z,961.40
2019-01-27T09:55:42.257Z,961.42
2019-01-27T09:56:30.761Z,961.39
2019-01-27T09:57:31.330Z,961.37
2019-01-27T09:58:46.745Z,961.37
2019-01-27T09:59:31.755Z,961.45
2019-01-27T10:00:37.787Z,961.35
2019-01-27T10:01:38.297Z,961.35
2019-01-27T10:02:47.250Z,961.32
2019-01-27T10:03:30.868Z,961.30
2019-01-27T10:04:46.806Z,961.26
2019-01-27T10:05:34.810Z,961.25
2019-01-27T10:06:33.799Z,961.28
2019-01-27T10:07:47.296Z,961.27
2019-01-27T10:08:33.307Z,961.22
2019-01-27T10:09:38.069Z,961.19
2019-01-27T10:11:08.792Z,961.19
2019-01-27T10:11:36.294Z,961.18
2019-01-27T10:12:32.521Z,961.17
2019-01-27T10:13:32.721Z,961.16
2019-01-27T10:14:34.871Z,961.18
2019-01-27T10:17:09.527Z,961.11
2019-01-27T10:18:09.301Z,961.13
2019-01-27T10:19:13.366Z,961.17
2019-01-27T10:20:06.579Z,961.07
2019-01-27T10:21:29.879Z,961.16
2019-01-27T10:22:26.910Z,961.08
2019-01-27T10:23:13.735Z,961.05
2019-01-27T10:24:13.810Z,961.03
2019-01-27T10:25:07.467Z,961.07
2019-01-27T10:26:08.591Z,961.09
2019-01-27T10:27:06.705Z,961.05
2019-01-27T10:28:09.733Z,961.02
2019-01-27T10:29:10.525Z,961.02
2019-01-27T10:30:11.259Z,960.99
2019-01-27T10:31:10.218Z,960.95
2019-01-27T10:32:15.286Z,960.94
2019-01-27T10:33:11.750Z,960.90
2019-01-27T10:34:09.523Z,960.92
2019-01-27T10:35:10.507Z,960.95
2019-01-27T10:36:11.216Z,960.93
2019-01-27T10:37:12.214Z,960.89
2019-01-27T10:38:16.301Z,960.89
2019-01-27T10:39:08.921Z,960.87
2019-01-27T10:40:39.577Z,960.85
2019-01-27T10:41:12.833Z,960.92
2019-01-27T10:42:12.219Z,960.83
2019-01-27T10:43:11.791Z,960.82
2019-01-27T10:44:12.213Z,960.84
2019-01-27T10:45:13.958Z,960.79
2019-01-27T10:46:11.095Z,960.81
2019-01-27T10:47:13.765Z,960.77
2019-01-27T10:48:12.778Z,960.83
2019-01-27T10:49:15.216Z,960.73
2019-01-27T10:52:06.097Z,960.73
2019-01-27T10:52:46.283Z,960.77
2019-01-27T10:53:42.799Z,960.75
2019-01-27T10:55:07.145Z,960.74
2019-01-27T10:55:50.298Z,960.70
2019-01-27T10:56:51.212Z,960.73
2019-01-27T10:57:45.525Z,960.74
2019-01-27T10:59:05.785Z,960.72
2019-01-27T10:59:47.725Z,960.69
2019-01-27T11:00:45.720Z,960.66
2019-01-27T11:01:45.331Z,960.71
2019-01-27T11:02:46.177Z,960.72
2019-01-27T11:03:48.588Z,960.66
2019-01-27T11:06:22.619Z,960.70
2019-01-27T11:07:21.117Z,960.58
2019-01-27T11:08:32.927Z,960.59
2019-01-27T11:09:32.954Z,960.59
2019-01-27T11:10:22.385Z,960.56
2019-01-27T11:13:04.110Z,960.50
2019-01-27T11:13:54.118Z,960.53
2019-01-27T11:14:49.692Z,960.51
2019-01-27T11:15:54.591Z,960.49
2019-01-27T11:16:52.676Z,960.48
2019-01-27T11:17:51.122Z,960.49
2019-01-27T11:18:51.463Z,960.57
2019-01-27T11:19:50.767Z,960.46
2019-01-27T11:20:54.613Z,960.49
2019-01-27T11:21:55.475Z,960.47
2019-01-27T11:22:53.094Z,960.57
2019-01-27T11:23:53.199Z,960.46
2019-01-27T11:24:58.065Z,960.44
2019-01-27T11:26:16.619Z,960.39
2019-01-27T11:27:21.601Z,960.43
2019-01-27T11:29:49.374Z,960.27
2019-01-27T11:30:24.971Z,960.25
2019-01-27T11:31:24.134Z,960.26
2019-01-27T11:32:53.073Z,960.21
2019-01-27T11:33:28.069Z,960.21
2019-01-27T11:34:29.658Z,960.23
2019-01-27T11:35:25.877Z,960.13
2019-01-27T11:36:28.550Z,960.09
2019-01-27T11:37:27.125Z,960.17
2019-01-27T11:38:29.378Z,960.14
2019-01-27T11:39:41.260Z,960.17
2019-01-27T11:40:28.986Z,960.16
2019-01-27T11:41:29.560Z,960.13
2019-01-27T11:42:28.485Z,960.19
2019-01-27T11:43:28.007Z,960.18
2019-01-27T11:44:30.040Z,960.13
2019-01-27T11:45:26.564Z,960.09
2019-01-27T11:46:43.502Z,960.09
2019-01-27T11:49:04.109Z,960.09
2019-01-27T11:50:01.541Z,960.10
2019-01-27T11:51:02.413Z,960.04
2019-01-27T11:52:22.102Z,960.02
2019-01-27T11:53:00.311Z,960.05
2019-01-27T11:54:24.083Z,960.07
2019-01-27T11:55:01.587Z,960.08
2019-01-27T11:55:59.860Z,960.05
2019-01-27T11:57:03.602Z,959.92
2019-01-27T11:58:02.093Z,960.00
2019-01-27T11:59:01.062Z,959.95
2019-01-27T12:00:17.540Z,960.03
2019-01-27T12:01:02.572Z,959.95
2019-01-27T12:02:17.608Z,959.97
2019-01-27T12:03:24.031Z,959.96
2019-01-27T12:05:37.332Z,959.97
2019-01-27T12:06:34.966Z,959.94
2019-01-27T12:07:34.409Z,959.87
2019-01-27T12:08:33.631Z,959.83
2019-01-27T12:09:35.417Z,959.83
2019-01-27T12:10:39.896Z,959.86
2019-01-27T12:11:36.258Z,959.75
2019-01-27T12:12:38.400Z,959.87
2019-01-27T12:13:57.447Z,959.79
2019-01-27T12:14:36.384Z,959.76
2019-01-27T12:15:37.105Z,959.80
2019-01-27T12:16:37.853Z,959.75
2019-01-27T12:17:47.137Z,959.77
2019-01-27T12:18:38.834Z,959.72
2019-01-27T12:19:40.201Z,959.75
2019-01-27T12:20:43.326Z,959.77
2019-01-27T12:21:37.888Z,959.80
2019-01-27T12:22:37.141Z,959.80
2019-01-27T12:23:44.839Z,959.74
2019-01-27T12:24:36.455Z,959.71
2019-01-27T12:25:38.394Z,959.75
2019-01-27T12:26:39.359Z,959.67
2019-01-27T12:27:52.386Z,959.66
2019-01-27T12:28:39.013Z,959.61
2019-01-27T12:29:39.845Z,959.67
2019-01-27T12:30:37.359Z,959.58
2019-01-27T12:31:39.526Z,959.58
2019-01-27T12:32:41.382Z,959.58
2019-01-27T12:34:00.885Z,959.61
2019-01-27T12:34:38.128Z,959.61
2019-01-27T12:35:41.895Z,959.58
2019-01-27T12:36:46.569Z,959.59
2019-01-27T12:37:47.423Z,959.59
2019-01-27T12:38:45.431Z,959.57
2019-01-27T12:39:41.907Z,959.58
2019-01-27T12:40:48.373Z,959.53
2019-01-27T12:41:40.922Z,959.52
2019-01-27T12:42:56.835Z,959.53
2019-01-27T12:43:56.381Z,959.55
2019-01-27T12:44:41.387Z,959.49
2019-01-27T12:45:41.038Z,959.49
2019-01-27T12:46:44.553Z,959.44
2019-01-27T12:49:15.369Z,959.39
2019-01-27T12:50:27.991Z,959.37
2019-01-27T12:52:46.571Z,959.36
2019-01-27T12:53:46.041Z,959.40
2019-01-27T12:54:45.546Z,959.37
2019-01-27T12:55:51.582Z,959.33
2019-01-27T12:56:48.286Z,959.28
2019-01-27T12:57:48.794Z,959.32
2019-01-27T12:58:48.580Z,959.31
2019-01-27T13:00:09.040Z,959.33
2019-01-27T13:00:52.558Z,959.39
2019-01-27T13:02:11.544Z,959.37
2019-01-27T13:02:57.634Z,959.41
2019-01-27T13:04:09.093Z,959.40
2019-01-27T13:04:47.034Z,959.41
2019-01-27T13:06:11.959Z,959.38
2019-01-27T13:06:48.567Z,959.32
2019-01-27T13:07:48.013Z,959.36
2019-01-27T13:08:51.063Z,959.37
2019-01-27T13:10:11.021Z,959.29
2019-01-27T13:11:10.463Z,959.31
2019-01-27T13:11:49.583Z,959.28
2019-01-27T13:12:49.582Z,959.29
2019-01-27T13:13:55.571Z,959.29
2019-01-27T13:14:48.177Z,959.27
2019-01-27T13:15:51.040Z,959.24
2019-01-27T13:16:53.092Z,959.25
2019-01-27T13:17:50.671Z,959.21
2019-01-27T13:18:49.740Z,959.21
2019-01-27T13:19:53.847Z,959.21
2019-01-27T13:20:54.524Z,959.20
2019-01-27T13:21:50.675Z,959.22
2019-01-27T13:22:49.441Z,959.22
2019-01-27T13:23:53.570Z,959.15
2019-01-27T13:24:56.575Z,959.18
2019-01-27T13:25:51.627Z,959.17
2019-01-27T13:26:54.082Z,959.04
2019-01-27T13:27:51.022Z,959.04
2019-01-27T13:28:52.082Z,959.13
2019-01-27T13:29:51.654Z,959.08
2019-01-27T13:30:50.759Z,959.05
2019-01-27T13:31:58.563Z,959.04
2019-01-27T13:32:53.075Z,959.06
2019-01-27T13:33:51.304Z,959.00
2019-01-27T13:34:51.389Z,959.03
2019-01-27T13:35:53.589Z,959.04
2019-01-27T13:36:52.857Z,959.02
2019-01-27T13:37:54.547Z,959.09
2019-01-27T13:38:54.071Z,959.06
2019-01-27T13:39:52.289Z,959.04
2019-01-27T13:40:54.120Z,958.99
2019-01-27T13:41:54.563Z,959.05
2019-01-27T13:42:52.938Z,959.03
2019-01-27T13:43:54.564Z,958.97